createdAt,value
2018-08-16T03:22:02.688Z,3
2018-08-16T03:29:03.138Z,7
2018-08-16T03:32:33.357Z,10
2018-08-16T03:34:33.533Z,13
2018-08-16T03:36:03.571Z,17
2018-08-16T03:37:33.640Z,20
2018-08-16T03:38:33.716Z,23
2018-08-16T03:39:33.837Z,27
2018-08-16T03:40:03.807Z,30
2018-08-16T03:41:03.862Z,33
2018-08-16T03:41:33.890Z,37
2018-08-16T03:42:03.976Z,40
2018-08-16T03:42:34.008Z,43
2018-08-16T03:43:34.082Z,50
2018-08-16T03:44:04.045Z,53
2018-08-16T03:44:34.130Z,57
2018-08-16T03:45:04.100Z,60
2018-08-16T03:45:34.137Z,63
2018-08-16T03:46:04.207Z,70
2018-08-16T03:46:34.269Z,73
2018-08-16T03:47:04.253Z,77
2018-08-16T03:47:34.304Z,83
2018-08-16T03:48:04.342Z,90
2018-08-16T03:48:34.333Z,93
2018-08-16T03:49:04.389Z,100
2018-08-16T03:49:34.465Z,107
2018-08-16T03:50:04.462Z,113
2018-08-16T03:50:34.478Z,120
2018-08-16T03:51:04.518Z,127
2018-08-16T03:51:34.557Z,137
2018-08-16T03:52:04.540Z,143
2018-08-16T03:52:34.648Z,150
2018-08-16T03:53:04.696Z,160
2018-08-16T03:53:34.670Z,170
2018-08-16T03:54:04.667Z,180
2018-08-16T03:54:34.745Z,187
2018-08-16T03:55:04.746Z,197
2018-08-16T03:55:34.749Z,207
2018-08-16T03:56:04.824Z,213
2018-08-16T03:56:34.813Z,227
2018-08-16T03:57:04.841Z,237
2018-08-16T03:57:34.877Z,247
2018-08-16T03:58:04.906Z,260
2018-08-16T03:58:34.939Z,273
2018-08-16T03:59:04.968Z,287
2018-08-16T03:59:35.056Z,297
2018-08-16T04:00:05.027Z,313
2018-08-16T04:00:35.078Z,327
2018-08-16T04:01:05.090Z,340
2018-08-16T04:01:35.152Z,357
2018-08-16T04:02:05.166Z,373
2018-08-16T04:02:35.182Z,387
2018-08-16T04:03:05.240Z,403
2018-08-16T04:03:35.283Z,420
2018-08-16T04:04:05.329Z,433
2018-08-16T04:04:35.392Z,453
2018-08-16T04:05:05.379Z,470
2018-08-16T04:05:35.420Z,490
2018-08-16T04:06:05.492Z,510
2018-08-16T04:06:35.471Z,533
2018-08-16T04:07:05.509Z,553
2018-08-16T04:07:35.549Z,573
2018-08-16T04:08:05.571Z,597
2018-08-16T04:08:35.580Z,620
2018-08-16T04:09:05.625Z,640
2018-08-16T04:09:35.700Z,667
2018-08-16T04:10:05.717Z,690
2018-08-16T04:10:35.700Z,717
2018-08-16T04:11:05.756Z,743
2018-08-16T04:11:35.735Z,770
2018-08-16T04:12:05.827Z,797
2018-08-16T04:12:35.859Z,827
2018-08-16T04:13:05.915Z,853
2018-08-16T04:13:35.891Z,880
2018-08-16T04:14:05.890Z,910
2018-08-16T04:14:35.997Z,940
2018-08-16T04:15:06.028Z,973
2018-08-16T04:15:35.986Z,1003
2018-08-16T04:16:06.016Z,1037
2018-08-16T04:16:36.108Z,1067
2018-08-16T04:17:06.095Z,1100
2018-08-16T04:17:36.161Z,1137
2018-08-16T04:18:06.159Z,1173
2018-08-16T04:18:36.219Z,1210
2018-08-16T04:19:06.227Z,1250
2018-08-16T04:19:36.343Z,1283
2018-08-16T04:20:06.326Z,1323
2018-08-16T04:20:36.311Z,1367
2018-08-16T04:21:06.409Z,1407
2018-08-16T04:21:36.432Z,1447
2018-08-16T04:22:06.425Z,1490
2018-08-16T04:22:36.473Z,1530
2018-08-16T04:23:06.466Z,1573
2018-08-16T04:23:36.557Z,1617
2018-08-16T04:24:06.557Z,1663
2018-08-16T04:24:36.559Z,1707
2018-08-16T04:25:06.667Z,1753
2018-08-16T04:25:36.635Z,1800
2018-08-16T04:26:06.644Z,1853
2018-08-16T04:26:36.707Z,1907
2018-08-16T04:27:06.687Z,1953
2018-08-16T04:27:36.760Z,2007
2018-08-16T04:28:06.745Z,2060
2018-08-16T04:28:36.778Z,2113
2018-08-16T04:29:06.874Z,2163
2018-08-16T04:29:36.845Z,2213
2018-08-16T04:30:06.932Z,2263
2018-08-16T04:30:36.916Z,2313
2018-08-16T04:31:06.945Z,2363
2018-08-16T04:31:36.982Z,2417
2018-08-16T04:32:06.996Z,2473
2018-08-16T04:32:37.070Z,2540
2018-08-16T04:33:07.103Z,2600
2018-08-16T04:33:37.089Z,2667
2018-08-16T04:34:07.126Z,2733
2018-08-16T04:34:37.148Z,2783
2018-08-16T04:35:07.295Z,2833
2018-08-16T04:35:37.216Z,2873
2018-08-16T04:36:07.274Z,2910
2018-08-16T04:36:37.363Z,2943
2018-08-16T04:37:07.335Z,2977
2018-08-16T04:37:37.419Z,3010
2018-08-16T04:38:07.378Z,3053
2018-08-16T04:38:37.437Z,3103
2018-08-16T04:39:07.499Z,3160
2018-08-16T04:39:37.479Z,3213
2018-08-16T04:40:07.522Z,3270
2018-08-16T04:40:37.567Z,3330
2018-08-16T04:41:07.597Z,3390
2018-08-16T04:41:37.665Z,3447
2018-08-16T04:42:07.713Z,3507
2018-08-16T04:42:37.648Z,3567
2018-08-16T04:43:07.692Z,3620
2018-08-16T04:43:37.721Z,3677
2018-08-16T04:44:07.781Z,3717
2018-08-16T04:44:37.764Z,3770
2018-08-16T04:45:07.819Z,3817
2018-08-16T04:45:37.826Z,3873
2018-08-16T04:46:07.868Z,3943
2018-08-16T04:46:37.903Z,4013
2018-08-16T04:47:08.026Z,4087
2018-08-16T04:47:37.977Z,4167
2018-08-16T04:48:07.974Z,4247
2018-08-16T04:48:38.139Z,4320
2018-08-16T04:49:08.057Z,4400
2018-08-16T04:49:38.079Z,4480
2018-08-16T04:50:08.133Z,4557
2018-08-16T04:50:38.161Z,4637
2018-08-16T04:51:08.213Z,4710
2018-08-16T04:51:38.231Z,4783
2018-08-16T04:52:08.289Z,4850
2018-08-16T04:52:38.281Z,4917
2018-08-16T04:53:08.403Z,4980
2018-08-16T04:53:38.337Z,5040
2018-08-16T04:54:08.350Z,5100
2018-08-16T04:54:38.417Z,5153
2018-08-16T04:55:08.440Z,5210
2018-08-16T04:55:38.472Z,5267
2018-08-16T04:56:08.509Z,5323
2018-08-16T04:56:38.547Z,5373
2018-08-16T04:57:08.632Z,5430
2018-08-16T04:57:38.625Z,5483
2018-08-16T04:58:08.633Z,5540
2018-08-16T04:58:38.664Z,5627
2018-08-16T04:59:08.684Z,5690
2018-08-16T04:59:38.744Z,5733
2018-08-16T05:00:08.740Z,5780
2018-08-16T05:00:38.804Z,5793
2018-08-16T05:01:08.812Z,5823
2018-08-16T05:01:38.862Z,5863
2018-08-16T05:02:08.920Z,5913
2018-08-16T05:02:38.933Z,5923
2018-08-16T05:03:08.966Z,5933
2018-08-16T05:03:38.984Z,5913
2018-08-16T05:04:09.006Z,5903
2018-08-16T05:04:39.071Z,5887
2018-08-16T05:05:09.064Z,5893
2018-08-16T05:05:39.130Z,5927
2018-08-16T05:06:09.143Z,5973
2018-08-16T05:06:39.241Z,6047
2018-08-16T05:07:09.324Z,6127
2018-08-16T05:07:39.255Z,6200
2018-08-16T05:08:09.341Z,6267
2018-08-16T05:08:39.356Z,6317
2018-08-16T05:09:09.417Z,6363
2018-08-16T05:09:39.506Z,6400
2018-08-16T05:10:09.451Z,6450
2018-08-16T05:10:39.455Z,6507
2018-08-16T05:11:09.530Z,6577
2018-08-16T05:11:39.550Z,6660
2018-08-16T05:12:09.579Z,6743
2018-08-16T05:12:39.637Z,6823
2018-08-16T05:13:09.703Z,6863
2018-08-16T05:13:39.614Z,6970
2018-08-16T05:14:09.709Z,7013
2018-08-16T05:14:39.676Z,7033
2018-08-16T05:15:09.702Z,7093
2018-08-16T05:15:39.743Z,7160
2018-08-16T05:16:09.817Z,7230
2018-08-16T05:16:39.802Z,7297
2018-08-16T05:17:09.938Z,7357
2018-08-16T05:17:39.880Z,7417
2018-08-16T05:18:09.890Z,7467
2018-08-16T05:18:39.996Z,7517
2018-08-16T05:19:09.946Z,7567
2018-08-16T05:19:39.987Z,7633
2018-08-16T05:20:10.007Z,7690
2018-08-16T05:20:40.114Z,7703
2018-08-16T05:21:10.120Z,7743
2018-08-16T05:21:40.155Z,7780
2018-08-16T05:22:10.664Z,7823
2018-08-16T05:22:41.806Z,7877
2018-08-16T05:23:11.134Z,8007
2018-08-16T05:23:41.211Z,8160
2018-08-16T05:24:11.161Z,8250
2018-08-16T05:24:41.208Z,8190
2018-08-16T05:25:11.259Z,8220
2018-08-16T05:25:41.253Z,8513
2018-08-16T05:26:11.343Z,8567
2018-08-16T05:26:41.816Z,8577
2018-08-16T05:27:11.840Z,8613
2018-08-16T05:27:42.622Z,8587
2018-08-16T05:28:11.922Z,8610
2018-08-16T05:29:11.982Z,8560
2018-08-16T05:29:41.980Z,8567
2018-08-16T05:30:12.056Z,8590
2018-08-16T05:30:42.065Z,8737
2018-08-16T05:31:12.053Z,8787
2018-08-16T05:31:42.240Z,8710
2018-08-16T05:32:12.141Z,8790
2018-08-16T05:32:42.156Z,8777
2018-08-16T05:33:12.206Z,8817
2018-08-16T05:33:42.372Z,8853
2018-08-16T05:34:12.409Z,8920
2018-08-16T05:34:42.529Z,9037
2018-08-16T05:35:12.515Z,9403
2018-08-16T05:35:42.563Z,9833
2018-08-16T05:36:12.592Z,10210
2018-08-16T05:36:42.627Z,10510
2018-08-16T05:37:12.678Z,10130
2018-08-16T05:37:42.671Z,9710
2018-08-16T05:38:12.700Z,9237
2018-08-16T05:38:42.762Z,9247
2018-08-16T05:39:12.869Z,9277
2018-08-16T05:39:42.798Z,9410
2018-08-16T05:40:12.821Z,9407
2018-08-16T05:40:42.907Z,9403
2018-08-16T05:41:12.888Z,9400
2018-08-16T05:41:42.926Z,9390
2018-08-16T05:42:13.011Z,9387
2018-08-16T05:42:42.976Z,9400
2018-08-16T05:43:13.060Z,9397
2018-08-16T05:43:43.113Z,9403
2018-08-16T05:44:13.190Z,9427
2018-08-16T05:44:43.144Z,9450
2018-08-16T05:45:13.236Z,9490
2018-08-16T05:45:43.180Z,9547
2018-08-16T05:46:13.200Z,9657
2018-08-16T05:46:43.240Z,9780
2018-08-16T05:47:13.306Z,9943
2018-08-16T05:47:43.300Z,9963
2018-08-16T05:48:13.389Z,9817
2018-08-16T05:48:43.358Z,10110
2018-08-16T05:49:13.454Z,10417
2018-08-16T05:49:43.427Z,11250
2018-08-16T05:50:13.480Z,11760
2018-08-16T05:50:43.574Z,12063
2018-08-16T05:51:13.554Z,12510
2018-08-16T05:51:43.598Z,12423
2018-08-16T05:52:13.591Z,12090
2018-08-16T05:52:43.653Z,11520
2018-08-16T05:53:13.646Z,10970
2018-08-16T05:53:43.710Z,10540
2018-08-16T05:54:13.713Z,10397
2018-08-16T05:54:43.713Z,10230
2018-08-16T05:55:13.752Z,10270
2018-08-16T05:55:43.791Z,10313
2018-08-16T05:56:13.807Z,10337
2018-08-16T05:56:43.856Z,10390
2018-08-16T05:57:13.869Z,10453
2018-08-16T05:57:43.900Z,10653
2018-08-16T05:58:14.019Z,10677
2018-08-16T05:58:43.962Z,10600
2018-08-16T05:59:14.064Z,10537
2018-08-16T05:59:44.044Z,10573
2018-08-16T06:00:14.053Z,10620
2018-08-16T06:00:44.084Z,10643
2018-08-16T06:01:14.124Z,10677
2018-08-16T06:01:44.199Z,10743
2018-08-16T06:02:44.242Z,10780
2018-08-16T06:03:14.317Z,10850
2018-08-16T06:03:44.285Z,10920
2018-08-16T06:04:14.406Z,10963
2018-08-16T06:04:44.346Z,10953
2018-08-16T06:05:14.430Z,10993
2018-08-16T06:05:44.421Z,11010
2018-08-16T06:06:14.562Z,11080
2018-08-16T06:06:44.528Z,11093
2018-08-16T06:07:14.550Z,11097
2018-08-16T06:07:44.577Z,11237
2018-08-16T06:08:14.618Z,11180
2018-08-16T06:08:44.640Z,11230
2018-08-16T06:09:14.725Z,11270
2018-08-16T06:09:44.693Z,11293
2018-08-16T06:10:14.716Z,11300
2018-08-16T06:10:44.758Z,11370
2018-08-16T06:11:14.789Z,11383
2018-08-16T06:11:44.807Z,11440
2018-08-16T06:12:14.851Z,11463
2018-08-16T06:12:44.864Z,11547
2018-08-16T06:13:14.907Z,11677
2018-08-16T06:13:44.942Z,11627
2018-08-16T06:14:15.034Z,11770
2018-08-16T06:14:44.984Z,11657
2018-08-16T06:15:15.034Z,11697
2018-08-16T06:15:45.067Z,11740
2018-08-16T06:16:15.065Z,11793
2018-08-16T06:16:45.095Z,11830
2018-08-16T06:17:15.150Z,12077
2018-08-16T06:17:45.170Z,11863
2018-08-16T06:18:15.213Z,11900
2018-08-16T06:18:45.230Z,11940
2018-08-16T06:19:15.281Z,11973
2018-08-16T06:19:45.310Z,12017
2018-08-16T06:20:15.346Z,12050
2018-08-16T06:20:45.371Z,12103
2018-08-16T06:21:15.393Z,12143
2018-08-16T06:21:45.441Z,12183
2018-08-16T06:22:15.453Z,12243
2018-08-16T06:22:45.478Z,12293
2018-08-16T06:23:15.521Z,12313
2018-08-16T06:23:45.525Z,12387
2018-08-16T06:24:15.634Z,12437
2018-08-16T06:24:45.578Z,12477
2018-08-16T06:25:15.642Z,12547
2018-08-16T06:25:45.633Z,12607
2018-08-16T06:26:15.671Z,12663
2018-08-16T06:26:45.693Z,12737
2018-08-16T06:27:15.745Z,12787
2018-08-16T06:27:45.771Z,13280
2018-08-16T06:28:15.794Z,13123
2018-08-16T06:28:45.819Z,13103
2018-08-16T06:29:15.869Z,13463
2018-08-16T06:29:45.885Z,13410
2018-08-16T06:30:15.908Z,13473
2018-08-16T06:30:45.937Z,13850
2018-08-16T06:31:16.112Z,14043
2018-08-16T06:31:46.099Z,13843
2018-08-16T06:32:16.024Z,13887
2018-08-16T06:32:46.058Z,13657
2018-08-16T06:33:16.131Z,13370
2018-08-16T06:33:46.122Z,13517
2018-08-16T06:34:16.227Z,13583
2018-08-16T06:34:46.232Z,13470
2018-08-16T06:35:16.226Z,13533
2018-08-16T06:35:46.298Z,13507
2018-08-16T06:36:16.343Z,13537
2018-08-16T06:36:46.380Z,13593
2018-08-16T06:37:16.403Z,13613
2018-08-16T06:37:46.434Z,13647
2018-08-16T06:38:16.440Z,13687
2018-08-16T06:38:46.500Z,13737
2018-08-16T06:39:16.568Z,13777
2018-08-16T06:39:46.526Z,13817
2018-08-16T06:40:16.592Z,13860
2018-08-16T06:40:46.571Z,13907
2018-08-16T06:41:16.618Z,13950
2018-08-16T06:41:46.659Z,13977
2018-08-16T06:42:16.643Z,14003
2018-08-16T06:42:46.732Z,14047
2018-08-16T06:43:16.722Z,14057
2018-08-16T06:43:46.765Z,14077
2018-08-16T06:44:16.801Z,14407
2018-08-16T06:44:46.886Z,14363
2018-08-16T06:45:16.832Z,14950
2018-08-16T06:45:46.861Z,14947
2018-08-16T06:46:16.902Z,14327
2018-08-16T06:46:46.922Z,14287
2018-08-16T06:47:16.954Z,14327
2018-08-16T06:47:47.050Z,14350
2018-08-16T06:48:17.021Z,14513
2018-08-16T06:48:47.063Z,14457
2018-08-16T06:49:17.079Z,14610
2018-08-16T06:49:47.168Z,14770
2018-08-16T06:50:17.187Z,14587
2018-08-16T06:50:47.250Z,14607
2018-08-16T06:51:17.216Z,14617
2018-08-16T06:51:47.277Z,14670
2018-08-16T06:52:17.307Z,14687
2018-08-16T06:52:47.294Z,14737
2018-08-16T06:53:17.399Z,14770
2018-08-16T06:54:17.394Z,14767
2018-08-16T06:54:47.477Z,15003
2018-08-16T06:55:17.530Z,14857
2018-08-16T06:55:47.494Z,15133
2018-08-16T06:56:17.572Z,16527
2018-08-16T06:56:47.600Z,16937
2018-08-16T06:57:17.645Z,18087
2018-08-16T06:57:47.664Z,16827
2018-08-16T06:58:17.734Z,15993
2018-08-16T06:58:47.727Z,16480
2018-08-16T06:59:17.728Z,15010
2018-08-16T06:59:47.828Z,14950
2018-08-16T07:00:17.835Z,14987
2018-08-16T07:00:47.833Z,15033
2018-08-16T07:01:17.859Z,15067
2018-08-16T07:01:47.908Z,15220
2018-08-16T07:02:17.879Z,15277
2018-08-16T07:02:47.955Z,15440
2018-08-16T07:03:18.003Z,15450
2018-08-16T07:03:47.981Z,15260
2018-08-16T07:04:18.054Z,15547
2018-08-16T07:04:48.160Z,15427
2018-08-16T07:05:18.070Z,15443
2018-08-16T07:05:48.125Z,15403
2018-08-16T07:06:18.203Z,15440
2018-08-16T07:06:48.245Z,15460
2018-08-16T07:07:18.601Z,15500
2018-08-16T07:07:48.637Z,15517
2018-08-16T07:08:18.728Z,15523
2018-08-16T07:08:48.728Z,15533
2018-08-16T07:09:18.771Z,15540
2018-08-16T07:09:48.864Z,15523
2018-08-16T07:10:18.793Z,15540
2018-08-16T07:10:48.816Z,15610
2018-08-16T07:11:18.874Z,15773
2018-08-16T07:11:48.878Z,15713
2018-08-16T07:12:19.052Z,15917
2018-08-16T07:12:48.936Z,15953
2018-08-16T07:13:18.973Z,16767
2018-08-16T07:13:49.100Z,16720
2018-08-16T07:14:19.028Z,17170
2018-08-16T07:14:49.102Z,17107
2018-08-16T07:15:19.121Z,16360
2018-08-16T07:15:49.122Z,16400
2018-08-16T07:16:19.154Z,16227
2018-08-16T07:16:49.203Z,16020
2018-08-16T07:17:19.226Z,16097
2018-08-16T07:17:49.320Z,16153
2018-08-16T07:18:19.307Z,16107
2018-08-16T07:18:49.449Z,16150
2018-08-16T07:19:19.381Z,16180
2018-08-16T07:19:49.435Z,16223
2018-08-16T07:20:19.408Z,16273
2018-08-16T07:20:49.492Z,16327
2018-08-16T07:21:19.514Z,16397
2018-08-16T07:21:49.553Z,16403
2018-08-16T07:22:19.561Z,16463
2018-08-16T07:22:49.603Z,16467
2018-08-16T07:23:19.590Z,16487
2018-08-16T07:23:49.650Z,16557
2018-08-16T07:24:19.710Z,16577
2018-08-16T07:24:49.865Z,16600
2018-08-16T07:25:19.719Z,16663
2018-08-16T07:25:49.739Z,16700
2018-08-16T07:26:19.769Z,16760
2018-08-16T07:26:49.819Z,16803
2018-08-16T07:27:19.830Z,16827
2018-08-16T07:27:49.877Z,17030
2018-08-16T07:28:19.895Z,16957
2018-08-16T07:28:49.935Z,16930
2018-08-16T07:29:19.956Z,16943
2018-08-16T07:29:50.253Z,16973
2018-08-16T07:30:20.029Z,17020
2018-08-16T07:30:50.043Z,17023
2018-08-16T07:31:20.121Z,17050
2018-08-16T07:31:50.106Z,17087
2018-08-16T07:32:20.146Z,17377
2018-08-16T07:32:50.253Z,17307
2018-08-16T07:33:20.257Z,17283
2018-08-16T07:33:50.295Z,17190
2018-08-16T07:34:20.274Z,17180
2018-08-16T07:34:50.350Z,17190
2018-08-16T07:35:20.335Z,17203
2018-08-16T07:35:50.368Z,17193
2018-08-16T07:36:20.390Z,17163
2018-08-16T07:36:50.438Z,17060
2018-08-16T07:37:20.489Z,17417
2018-08-16T07:37:50.484Z,17223
2018-08-16T07:38:20.588Z,17400
2018-08-16T07:38:50.625Z,17350
2018-08-16T07:39:20.573Z,17393
2018-08-16T07:39:50.657Z,17500
2018-08-16T07:40:20.673Z,17710
2018-08-16T07:40:50.719Z,17967
2018-08-16T07:41:20.739Z,18203
2018-08-16T07:41:50.789Z,17923
2018-08-16T07:42:20.794Z,18120
2018-08-16T07:42:50.809Z,20033
2018-08-16T07:43:20.862Z,18740
2018-08-16T07:43:50.929Z,18307
2018-08-16T07:44:20.891Z,19987
2018-08-16T07:44:50.995Z,21793
2018-08-16T07:45:20.976Z,25333
2018-08-16T07:45:51.197Z,27240
2018-08-16T07:46:21.248Z,26600
2018-08-16T07:46:51.071Z,31663
2018-08-16T07:47:21.093Z,28167
2018-08-16T07:47:51.092Z,30547
2018-08-16T07:48:21.204Z,30503
2018-08-16T07:48:51.241Z,32157
2018-08-16T07:49:21.229Z,33913
2018-08-16T07:49:51.272Z,33687
2018-08-16T07:50:21.284Z,29577
2018-08-16T07:50:51.324Z,35067
2018-08-16T07:51:21.492Z,21813
2018-08-16T07:51:51.449Z,17723
2018-08-16T07:52:21.423Z,17587
2018-08-16T07:52:51.476Z,17627
2018-08-16T07:53:21.458Z,17567
2018-08-16T07:53:51.528Z,18600
2018-08-16T07:54:21.575Z,17467
2018-08-16T07:54:51.562Z,17550
2018-08-16T07:55:21.598Z,17563
2018-08-16T07:55:51.605Z,18773
2018-08-16T07:56:21.619Z,17947
2018-08-16T07:56:51.660Z,20123
2018-08-16T07:57:21.715Z,19370
2018-08-16T07:57:51.759Z,22710
2018-08-16T07:58:21.819Z,19900
2018-08-16T07:58:51.811Z,18017
2018-08-16T07:59:21.817Z,23250
2018-08-16T07:59:51.898Z,18393
2018-08-16T08:00:21.866Z,20470
2018-08-16T08:00:51.900Z,22057
2018-08-16T08:01:21.925Z,22920
2018-08-16T08:01:51.965Z,22677
2018-08-16T08:02:21.989Z,20000
2018-08-16T08:02:52.019Z,18533
2018-08-16T08:03:22.053Z,19783
2018-08-16T08:03:52.081Z,20320
2018-08-16T08:04:22.118Z,20417
2018-08-16T08:04:52.238Z,21263
2018-08-16T08:05:22.213Z,20543
2018-08-16T08:05:52.261Z,18543
2018-08-16T08:06:22.292Z,17640
2018-08-16T08:06:52.291Z,17823
2018-08-16T08:07:22.363Z,17657
2018-08-16T08:07:52.373Z,17690
2018-08-16T08:08:22.387Z,17897
2018-08-16T08:08:52.492Z,20870
2018-08-16T08:09:22.500Z,20567
2018-08-16T08:09:52.674Z,20037
2018-08-16T08:10:22.496Z,21763
2018-08-16T08:10:52.542Z,18027
2018-08-16T08:11:22.613Z,17623
2018-08-16T08:11:52.610Z,17620
2018-08-16T08:12:52.636Z,17540
2018-08-16T08:13:22.781Z,17603
2018-08-16T08:13:52.778Z,17520
2018-08-16T08:14:22.745Z,17950
2018-08-16T08:14:52.790Z,17693
2018-08-16T08:15:22.851Z,18360
2018-08-16T08:15:52.848Z,19137
2018-08-16T08:16:22.863Z,18647
2018-08-16T08:16:52.911Z,18597
2018-08-16T08:17:22.917Z,18397
2018-08-16T08:17:52.955Z,19340
2018-08-16T08:18:23.005Z,18703
2018-08-16T08:18:53.014Z,17677
2018-08-16T08:19:23.045Z,17800
2018-08-16T08:19:53.103Z,17440
2018-08-16T08:20:23.120Z,17420
2018-08-16T08:20:53.179Z,17323
2018-08-16T08:21:23.199Z,17377
2018-08-16T08:21:53.254Z,17363
2018-08-16T08:22:23.236Z,17353
2018-08-16T08:22:53.319Z,17263
2018-08-16T08:23:23.304Z,17283
2018-08-16T08:23:53.325Z,17270
2018-08-16T08:24:23.417Z,17280
2018-08-16T08:24:53.417Z,17327
2018-08-16T08:25:23.616Z,17557
2018-08-16T08:25:53.481Z,17590
2018-08-16T08:26:23.531Z,17400
2018-08-16T08:26:53.546Z,17650
2018-08-16T08:27:23.567Z,17380
2018-08-16T08:27:53.600Z,17363
2018-08-16T08:28:23.641Z,17357
2018-08-16T08:28:53.675Z,17490
2018-08-16T08:29:23.820Z,18560
2018-08-16T08:29:53.718Z,17263
2018-08-16T08:30:23.813Z,17343
2018-08-16T08:30:53.812Z,17213
2018-08-16T08:31:23.776Z,17210
2018-08-16T08:31:53.863Z,17923
2018-08-16T08:32:23.872Z,17467
2018-08-16T08:32:53.927Z,19503
2018-08-16T08:33:23.949Z,19630
2018-08-16T08:33:53.972Z,21423
2018-08-16T08:34:24.023Z,18857
2018-08-16T08:34:54.063Z,17247
2018-08-16T08:35:24.101Z,17233
2018-08-16T08:35:54.103Z,17237
2018-08-16T08:36:24.147Z,17547
2018-08-16T08:36:54.182Z,17420
2018-08-16T08:37:24.201Z,17613
2018-08-16T08:37:54.224Z,25113
2018-08-16T08:38:24.314Z,23320
2018-08-16T08:38:54.332Z,25713
2018-08-16T08:39:24.340Z,24013
2018-08-16T08:39:54.361Z,31823
2018-08-16T08:40:24.368Z,38913
2018-08-16T08:40:54.429Z,38767
2018-08-16T08:41:24.452Z,44957
2018-08-16T08:41:54.468Z,32847
2018-08-16T08:42:24.518Z,30867
2018-08-16T08:42:54.495Z,32280
2018-08-16T08:43:24.590Z,21433
2018-08-16T08:43:54.592Z,27357
2018-08-16T08:44:24.607Z,24100
2018-08-16T08:44:54.680Z,22687
2018-08-16T08:45:24.666Z,25997
2018-08-16T08:45:54.700Z,25620
2018-08-16T08:46:24.713Z,24450
2018-08-16T08:46:54.753Z,25917
2018-08-16T08:47:24.769Z,24057
2018-08-16T08:47:54.812Z,22333
2018-08-16T08:48:24.867Z,22627
2018-08-16T08:48:54.875Z,26687
2018-08-16T08:49:24.893Z,20773
2018-08-16T08:49:54.924Z,26927
2018-08-16T08:50:25.046Z,24950
2018-08-16T08:50:54.987Z,39493
2018-08-16T08:51:25.024Z,29690
2018-08-16T08:51:55.041Z,25583
2018-08-16T08:52:25.104Z,42047
2018-08-16T08:52:55.123Z,55270
2018-08-16T08:53:25.190Z,43167
2018-08-16T08:53:55.222Z,55147
2018-08-16T08:54:25.216Z,66867
2018-08-16T08:54:55.234Z,54497
2018-08-16T08:55:25.303Z,77703
2018-08-16T08:55:55.305Z,71703
2018-08-16T08:56:25.370Z,77627
2018-08-16T08:56:55.386Z,59900
2018-08-16T08:57:25.407Z,54580
2018-08-16T08:57:55.472Z,77003
2018-08-16T08:58:25.456Z,76573
2018-08-16T08:58:55.554Z,85703
2018-08-16T08:59:25.612Z,85533
2018-08-16T08:59:55.543Z,77173
2018-08-16T09:00:25.589Z,75480
2018-08-16T09:00:55.657Z,65823
2018-08-16T09:01:25.631Z,85300
2018-08-16T09:01:55.686Z,82170
2018-08-16T09:02:25.699Z,86587
2018-08-16T09:02:55.736Z,86777
2018-08-16T09:03:25.760Z,54657
2018-08-16T09:03:55.798Z,87430
2018-08-16T09:04:25.848Z,88053
2018-08-16T09:04:55.867Z,88163
2018-08-16T09:05:25.907Z,73913
2018-08-16T09:05:55.958Z,83970
2018-08-16T09:06:25.936Z,88527
2018-08-16T09:06:56.039Z,88830
2018-08-16T09:07:26.000Z,88813
2018-08-16T09:07:56.128Z,88913
2018-08-16T09:08:26.159Z,89083
2018-08-16T09:08:56.097Z,88960
2018-08-16T09:09:26.196Z,89180
2018-08-16T09:09:56.158Z,89517
2018-08-16T09:10:26.189Z,89913
2018-08-16T09:10:56.274Z,89980
2018-08-16T09:11:26.313Z,90247
2018-08-16T09:11:56.344Z,90170
2018-08-16T09:12:26.347Z,90143
2018-08-16T09:12:56.420Z,90373
2018-08-16T09:13:26.400Z,85290
2018-08-16T09:13:56.439Z,91230
2018-08-16T09:14:26.497Z,90880
2018-08-16T09:14:56.591Z,91027
2018-08-16T09:15:26.523Z,91300
2018-08-16T09:15:56.620Z,82767
2018-08-16T09:16:26.578Z,90707
2018-08-16T09:16:56.638Z,91440
2018-08-16T09:17:26.645Z,91477
2018-08-16T09:17:56.699Z,91667
2018-08-16T09:18:26.713Z,92503
2018-08-16T09:18:56.713Z,92500
2018-08-16T09:19:26.804Z,92587
2018-08-16T09:19:56.823Z,92797
2018-08-16T09:20:26.849Z,92430
2018-08-16T09:20:56.918Z,92363
2018-08-16T09:21:26.909Z,93410
2018-08-16T09:21:56.933Z,93233
2018-08-16T09:22:26.975Z,93300
2018-08-16T09:22:56.985Z,92503
2018-08-16T09:23:27.108Z,93840
2018-08-16T09:23:57.156Z,93560
2018-08-16T09:24:27.078Z,92877
2018-08-16T09:24:57.136Z,93110
2018-08-16T09:25:27.156Z,93793
2018-08-16T09:25:57.224Z,93427
2018-08-16T09:26:27.255Z,93873
2018-08-16T09:26:57.280Z,94493
2018-08-16T09:27:27.303Z,95477
2018-08-16T09:27:57.322Z,95387
2018-08-16T09:28:27.369Z,95707
2018-08-16T09:28:57.331Z,96903
2018-08-16T09:29:27.380Z,97263
2018-08-16T09:29:57.486Z,97273
2018-08-16T09:30:27.454Z,96927
2018-08-16T09:30:57.529Z,96940
2018-08-16T09:31:27.501Z,98030
2018-08-16T09:31:57.520Z,98140
2018-08-16T09:32:27.550Z,98223
2018-08-16T09:32:57.603Z,99153
2018-08-16T09:33:27.680Z,98233
2018-08-16T09:33:57.648Z,99643
2018-08-16T09:34:27.713Z,98017
2018-08-16T09:34:57.723Z,98483
2018-08-16T09:35:27.764Z,98840
2018-08-16T09:35:58.019Z,99247
2018-08-16T09:36:27.795Z,99280
2018-08-16T09:36:57.832Z,99843
2018-08-16T09:37:27.934Z,100553
2018-08-16T09:37:57.886Z,100457
2018-08-16T09:38:27.918Z,99490
2018-08-16T09:38:57.950Z,99477
2018-08-16T09:39:28.061Z,99510
2018-08-16T09:39:58.020Z,99227
2018-08-16T09:40:28.054Z,98640
2018-08-16T09:40:58.098Z,97867
2018-08-16T09:41:28.125Z,98057
2018-08-16T09:41:58.141Z,98350
2018-08-16T09:42:28.206Z,98863
2018-08-16T09:42:58.205Z,99087
2018-08-16T09:43:28.279Z,100017
2018-08-16T09:43:58.277Z,100553
2018-08-16T09:44:28.304Z,100793
2018-08-16T09:44:58.337Z,101037
2018-08-16T09:45:28.404Z,100320
2018-08-16T09:45:58.472Z,100693
2018-08-16T09:46:28.457Z,100213
2018-08-16T09:46:58.514Z,100517
2018-08-16T09:47:28.483Z,101283
2018-08-16T09:47:58.543Z,100913
2018-08-16T09:48:28.550Z,100480
2018-08-16T09:48:58.569Z,100350
2018-08-16T09:49:28.596Z,101360
2018-08-16T09:49:58.627Z,101620
2018-08-16T09:50:28.678Z,101400
2018-08-16T09:50:58.716Z,101643
2018-08-16T09:51:28.769Z,102503
2018-08-16T09:51:58.759Z,103223
2018-08-16T09:52:28.807Z,103627
2018-08-16T09:52:58.813Z,103833
2018-08-16T09:53:28.844Z,104303
2018-08-16T09:53:58.873Z,104893
2018-08-16T09:54:28.949Z,104853
2018-08-16T09:54:58.938Z,104570
2018-08-16T09:55:28.968Z,103497
2018-08-16T09:55:59.035Z,103947
2018-08-16T09:56:29.040Z,105130
2018-08-16T09:56:59.062Z,105167
2018-08-16T09:57:29.109Z,105093
2018-08-16T09:57:59.123Z,105643
2018-08-16T09:58:29.211Z,105687
2018-08-16T09:58:59.219Z,105347
2018-08-16T09:59:29.210Z,105193
2018-08-16T09:59:59.298Z,105843
2018-08-16T10:00:29.307Z,106667
2018-08-16T10:00:59.323Z,107110
2018-08-16T10:01:29.381Z,106710
2018-08-16T10:01:59.510Z,106290
2018-08-16T10:02:29.450Z,105807
2018-08-16T10:02:59.487Z,106757
2018-08-16T10:03:29.493Z,107363
2018-08-16T10:03:59.524Z,106253
2018-08-16T10:04:29.566Z,105360
2018-08-16T10:04:59.607Z,106273
2018-08-16T10:05:29.673Z,107453
2018-08-16T10:05:59.690Z,107143
2018-08-16T10:06:29.720Z,109207
2018-08-16T10:06:59.716Z,109260
2018-08-16T10:07:29.767Z,107933
2018-08-16T10:07:59.784Z,108327
2018-08-16T10:08:29.832Z,108790
2018-08-16T10:08:59.863Z,108753
2018-08-16T10:09:29.873Z,107520
2018-08-16T10:09:59.899Z,107137
2018-08-16T10:10:29.907Z,108727